Time;durP1;ratioP1;P1;durP2;ratioP2;P2;SDS_P1;SDS_P2;PMS_P1;PMS_P2;Temp;Humidity;BMP_temperature;BMP_pressure;BME280_temperature;BME280_humidity;BME280_pressure;Samples;Min_cycle;Max_cycle;Signal;HPM_P1;HPM_P2
2023/04/25 00:00:38;;;;;;;5.05;1.80;;;36.00;22.90;;;;;;5068934;28;20051;-59
2023/04/25 00:03:06;;;;;;;25.65;2.92;;;35.90;22.70;;;;;;5067376;28;20503;-58
2023/04/25 00:05:32;;;;;;;6.38;1.50;;;35.90;22.80;;;;;;5066304;28;20029;-58
2023/04/25 00:07:59;;;;;;;9.55;1.80;;;35.80;22.60;;;;;;5068623;28;20033;-58
2023/04/25 00:10:26;;;;;;;5.03;1.70;;;35.80;23.30;;;;;;5065954;28;20046;-58
2023/04/25 00:12:52;;;;;;;6.80;1.50;;;35.70;22.40;;;;;;5069925;28;20045;-54
2023/04/25 00:15:19;;;;;;;9.32;1.42;;;35.70;22.60;;;;;;5068337;28;20027;-54
2023/04/25 00:17:45;;;;;;;5.93;1.50;;;35.70;22.60;;;;;;5067142;28;20029;-56
2023/04/25 00:20:12;;;;;;;7.18;1.67;;;35.60;22.60;;;;;;5070807;28;20044;-57
2023/04/25 00:22:38;;;;;;;6.70;1.75;;;35.60;23.00;;;;;;5066957;28;20366;-57
2023/04/25 00:25:06;;;;;;;8.15;1.60;;;35.60;22.90;;;;;;5066998;28;20025;-56
2023/04/25 00:27:33;;;;;;;7.75;1.88;;;35.50;22.60;;;;;;5068586;28;20047;-53
2023/04/25 00:30:00;;;;;;;9.88;1.60;;;35.50;22.40;;;;;;5067744;28;20027;-54
2023/04/25 00:32:26;;;;;;;7.72;1.50;;;35.50;22.80;;;;;;5069369;28;20082;-55
2023/04/25 00:34:52;;;;;;;5.32;1.77;;;35.50;22.70;;;;;;5067870;28;20017;-53
2023/04/25 00:37:19;;;;;;;9.65;2.00;;;35.30;22.40;;;;;;5068433;28;20021;-55
2023/04/25 00:39:46;;;;;;;5.57;1.40;;;35.20;23.20;;;;;;5067970;28;20397;-55
2023/04/25 00:42:12;;;;;;;4.90;1.70;;;35.10;23.60;;;;;;5068956;28;20028;-57
2023/04/25 00:44:39;;;;;;;8.52;1.70;;;35.10;23.60;;;;;;5066825;28;20048;-56
2023/04/25 00:47:06;;;;;;;7.55;1.80;;;35.10;23.80;;;;;;5068120;28;20048;-55
2023/04/25 00:49:33;;;;;;;10.15;2.00;;;35.00;24.20;;;;;;5066767;28;20140;-54
2023/04/25 00:51:59;;;;;;;7.88;1.63;;;34.90;24.20;;;;;;5068681;28;20077;-55
2023/04/25 00:54:26;;;;;;;6.07;1.60;;;34.80;24.10;;;;;;5067758;28;20031;-54
2023/04/25 00:56:53;;;;;;;7.95;1.70;;;34.80;24.50;;;;;;5068768;28;20035;-54
2023/04/25 00:59:20;;;;;;;10.57;1.75;;;34.80;24.80;;;;;;5068581;28;20407;-55
2023/04/25 01:01:47;;;;;;;10.73;1.90;;;34.70;25.20;;;;;;5068274;28;20035;-56
2023/04/25 01:04:14;;;;;;;6.35;1.50;;;34.70;25.40;;;;;;5068399;28;20050;-54
2023/04/25 01:06:41;;;;;;;11.30;2.05;;;34.70;25.40;;;;;;5068479;28;20134;-56
2023/04/25 01:09:07;;;;;;;8.65;2.05;;;34.60;25.30;;;;;;5068935;28;20070;-56
2023/04/25 01:11:34;;;;;;;12.88;1.85;;;34.50;25.10;;;;;;5067952;28;20078;-56
2023/04/25 01:14:01;;;;;;;13.88;2.10;;;34.40;25.30;;;;;;5068192;28;20107;-55
2023/04/25 01:16:28;;;;;;;5.13;1.83;;;34.30;25.50;;;;;;5069535;28;20063;-56
2023/04/25 01:18:55;;;;;;;10.38;1.73;;;34.20;25.80;;;;;;5067751;28;20067;-55
2023/04/25 01:21:22;;;;;;;8.25;2.15;;;34.20;25.50;;;;;;5070735;28;20488;-57
2023/04/25 01:23:49;;;;;;;10.43;1.85;;;34.10;25.40;;;;;;5067189;28;20083;-55
2023/04/25 01:26:15;;;;;;;15.63;2.13;;;34.10;26.30;;;;;;5068135;28;20502;-55
2023/04/25 01:28:42;;;;;;;6.20;1.98;;;34.00;26.40;;;;;;5068162;28;20073;-59
2023/04/25 01:31:09;;;;;;;5.03;1.80;;;33.80;26.00;;;;;;5067963;28;20077;-55
2023/04/25 01:33:35;;;;;;;8.30;2.00;;;33.70;25.80;;;;;;5068833;28;20111;-58
2023/04/25 01:36:02;;;;;;;5.28;1.40;;;33.70;26.00;;;;;;5065854;28;20039;-55
2023/04/25 01:38:28;;;;;;;5.95;1.92;;;33.60;26.10;;;;;;5064913;28;20099;-57
2023/04/25 01:40:56;;;;;;;7.93;1.80;;;33.50;25.80;;;;;;5075570;28;20040;-60
2023/04/25 01:43:22;;;;;;;11.88;1.77;;;33.40;25.70;;;;;;5068214;28;20086;-57
2023/04/25 01:45:50;;;;;;;4.35;1.60;;;33.30;24.80;;;;;;5072404;28;20458;-58
2023/04/25 01:48:16;;;;;;;10.52;1.95;;;33.30;25.30;;;;;;5077945;28;20075;-59
2023/04/25 01:50:43;;;;;;;12.25;2.13;;;33.20;25.60;;;;;;5074062;28;20047;-56
2023/04/25 01:53:12;;;;;;;6.47;1.98;;;33.20;25.60;;;;;;5070720;28;20504;-57
2023/04/25 01:55:39;;;;;;;7.40;1.92;;;33.10;26.00;;;;;;5070427;28;20373;-58
2023/04/25 01:58:09;;;;;;;8.88;2.13;;;33.00;26.10;;;;;;5069768;28;20109;-56
2023/04/25 02:00:40;;;;;;;5.80;1.85;;;32.90;26.60;;;;;;5071396;28;20070;-55
2023/04/25 02:03:08;;;;;;;5.10;1.67;;;32.70;26.60;;;;;;5069176;28;20030;-55
2023/04/25 02:05:38;;;;;;;8.20;1.75;;;32.70;27.00;;;;;;5069140;28;20059;-59
2023/04/25 02:08:07;;;;;;;8.05;1.83;;;32.50;26.70;;;;;;5071956;28;20055;-56
2023/04/25 02:10:34;;;;;;;7.07;2.30;;;32.40;26.90;;;;;;5070376;28;20081;-56
2023/04/25 02:13:01;;;;;;;9.93;2.17;;;32.30;26.10;;;;;;5071988;28;20038;-59
2023/04/25 02:15:27;;;;;;;5.53;1.90;;;32.20;26.70;;;;;;5071862;28;20491;-56
2023/04/25 02:17:53;;;;;;;6.60;2.33;;;32.10;26.40;;;;;;5071663;28;20048;-56
2023/04/25 02:20:24;;;;;;;8.35;2.10;;;32.00;26.20;;;;;;5071784;28;20049;-56
2023/04/25 02:22:50;;;;;;;19.30;2.40;;;31.90;25.90;;;;;;5072027;28;20053;-58
2023/04/25 02:25:19;;;;;;;20.27;2.85;;;31.90;26.20;;;;;;5071812;28;20041;-54
2023/04/25 02:27:47;;;;;;;11.57;2.67;;;31.80;26.30;;;;;;5071164;28;20055;-54
2023/04/25 02:30:13;;;;;;;12.57;2.20;;;31.70;27.00;;;;;;5071447;28;20048;-56
2023/04/25 02:32:40;;;;;;;30.75;3.53;;;31.50;26.80;;;;;;5070202;28;20092;-58
2023/04/25 02:35:07;;;;;;;32.90;3.15;;;31.40;26.50;;;;;;5074836;28;20044;-59
2023/04/25 02:37:35;;;;;;;27.95;3.40;;;31.30;27.00;;;;;;5070579;28;20052;-57
2023/04/25 02:40:03;;;;;;;21.17;3.38;;;31.20;27.20;;;;;;5070369;28;20182;-55
2023/04/25 02:42:29;;;;;;;23.83;3.05;;;31.10;27.30;;;;;;5071447;28;20096;-56
2023/04/25 02:44:56;;;;;;;16.35;2.55;;;31.00;27.80;;;;;;5069867;28;20047;-55
2023/04/25 02:47:22;;;;;;;17.02;4.30;;;31.00;27.70;;;;;;5069986;28;20090;-57
2023/04/25 02:49:48;;;;;;;14.35;3.97;;;30.90;26.00;;;;;;5070322;28;20069;-57
2023/04/25 02:52:15;;;;;;;24.17;4.43;;;31.10;30.60;;;;;;5069832;28;20459;-58
2023/04/25 02:54:41;;;;;;;17.75;4.40;;;31.10;31.70;;;;;;5070223;28;20045;-59
2023/04/25 02:57:08;;;;;;;15.60;4.43;;;31.10;33.20;;;;;;5071553;28;20097;-61
2023/04/25 02:59:34;;;;;;;21.55;4.53;;;31.10;34.10;;;;;;5070985;28;20054;-59
2023/04/25 03:02:01;;;;;;;14.20;4.30;;;31.00;34.30;;;;;;5069549;28;20055;-58
2023/04/25 03:04:28;;;;;;;13.38;4.20;;;31.00;34.90;;;;;;5070823;28;20103;-59
2023/04/25 03:06:54;;;;;;;19.63;3.92;;;30.90;35.10;;;;;;5069736;28;20083;-56
2023/04/25 03:09:21;;;;;;;26.80;5.13;;;30.80;35.40;;;;;;5071509;28;20546;-57
2023/04/25 03:11:47;;;;;;;18.48;4.75;;;30.80;35.40;;;;;;5070188;28;20057;-57
2023/04/25 03:14:14;;;;;;;17.05;4.55;;;30.80;35.40;;;;;;5069050;28;20041;-55
2023/04/25 03:16:40;;;;;;;16.33;4.38;;;30.70;35.50;;;;;;5070882;28;20042;-58
2023/04/25 03:19:07;;;;;;;16.48;3.85;;;30.60;35.50;;;;;;5069964;28;20067;-58
2023/04/25 03:21:34;;;;;;;18.83;4.82;;;30.60;35.50;;;;;;5069491;28;20112;-57
2023/04/25 03:24:02;;;;;;;16.75;4.68;;;30.60;35.70;;;;;;5070260;28;20100;-60
2023/04/25 03:26:29;;;;;;;22.50;4.75;;;30.50;35.40;;;;;;5070362;28;20054;-58
2023/04/25 03:28:55;;;;;;;31.55;4.45;;;30.40;34.90;;;;;;5068797;28;20755;-57
2023/04/25 03:31:22;;;;;;;19.50;4.63;;;30.40;35.20;;;;;;5070592;28;20396;-59
2023/04/25 03:33:48;;;;;;;22.58;4.68;;;30.30;35.30;;;;;;5068599;28;20065;-57
2023/04/25 03:36:15;;;;;;;25.80;4.95;;;30.30;35.20;;;;;;5070348;28;20091;-57
2023/04/25 03:38:41;;;;;;;24.38;5.00;;;30.20;35.50;;;;;;5071159;28;20070;-58
2023/04/25 03:41:08;;;;;;;19.63;5.75;;;30.20;35.90;;;;;;5070111;28;20053;-56
2023/04/25 03:43:34;;;;;;;28.20;7.80;;;30.00;36.40;;;;;;5069249;28;20064;-58
2023/04/25 03:46:01;;;;;;;35.70;8.63;;;30.00;37.60;;;;;;5069498;28;20051;-55
2023/04/25 03:48:27;;;;;;;30.08;6.07;;;29.90;36.70;;;;;;5068960;28;20083;-57
2023/04/25 03:50:54;;;;;;;31.67;6.13;;;29.90;36.40;;;;;;5069310;28;20061;-58
2023/04/25 03:53:21;;;;;;;33.78;6.05;;;29.90;36.50;;;;;;5068974;28;20048;-57
2023/04/25 03:55:47;;;;;;;38.42;6.40;;;29.80;37.10;;;;;;5070215;28;20045;-62
2023/04/25 03:58:14;;;;;;;37.50;7.10;;;29.70;37.00;;;;;;5069532;28;20050;-55
2023/04/25 04:00:40;;;;;;;41.58;7.30;;;29.70;37.10;;;;;;5067902;28;20064;-59
2023/04/25 04:03:07;;;;;;;43.47;6.07;;;29.60;38.20;;;;;;5067396;28;20088;-60
2023/04/25 04:05:33;;;;;;;52.08;6.35;;;29.50;38.30;;;;;;5067290;28;20084;-59
2023/04/25 04:07:59;;;;;;;69.53;6.57;;;29.30;39.20;;;;;;5071400;28;20084;-59
2023/04/25 04:10:26;;;;;;;57.30;7.13;;;29.30;38.90;;;;;;5068561;28;20058;-59
2023/04/25 04:12:52;;;;;;;74.95;7.72;;;29.20;39.20;;;;;;5067302;28;20188;-58
2023/04/25 04:15:19;;;;;;;67.70;7.20;;;29.20;39.40;;;;;;5068417;28;20070;-60
2023/04/25 04:17:46;;;;;;;52.63;5.30;;;29.20;39.60;;;;;;5068242;28;20495;-57
2023/04/25 04:20:13;;;;;;;26.55;4.47;;;29.10;40.50;;;;;;5067965;28;20138;-57
2023/04/25 04:22:39;;;;;;;30.38;4.00;;;29.00;40.30;;;;;;5069368;28;20458;-57
2023/04/25 04:25:06;;;;;;;23.05;3.60;;;29.00;40.50;;;;;;5068213;28;20237;-60
2023/04/25 04:27:34;;;;;;;30.65;4.63;;;28.90;40.70;;;;;;5065889;28;20074;-60
2023/04/25 04:30:01;;;;;;;34.08;4.45;;;28.90;40.50;;;;;;5066816;28;20082;-59
2023/04/25 04:32:27;;;;;;;27.38;4.65;;;28.80;40.40;;;;;;5068521;28;20455;-61
2023/04/25 04:34:55;;;;;;;27.00;5.43;;;28.80;40.60;;;;;;5065870;28;20067;-59
2023/04/25 04:37:21;;;;;;;48.05;7.80;;;28.70;40.80;;;;;;5065397;28;20421;-60
2023/04/25 04:39:48;;;;;;;34.05;7.53;;;28.70;40.90;;;;;;5067974;28;20073;-58
2023/04/25 04:42:14;;;;;;;38.35;5.13;;;28.70;41.60;;;;;;5066122;28;20466;-58
2023/04/25 04:44:41;;;;;;;20.95;4.35;;;28.60;43.10;;;;;;5064921;28;20073;-58
2023/04/25 04:47:07;;;;;;;20.48;4.50;;;28.40;44.30;;;;;;5066734;28;20059;-58
2023/04/25 04:49:33;;;;;;;24.08;5.10;;;28.30;45.80;;;;;;5064899;28;20551;-60
2023/04/25 04:52:00;;;;;;;25.45;4.78;;;28.20;46.40;;;;;;5066707;28;20075;-59
2023/04/25 04:54:26;;;;;;;27.25;5.00;;;28.10;47.10;;;;;;5066920;28;20700;-57
2023/04/25 04:56:53;;;;;;;16.77;4.38;;;28.00;47.90;;;;;;5065554;28;20062;-59
2023/04/25 04:59:19;;;;;;;15.40;4.55;;;27.90;48.50;;;;;;5067173;28;20542;-55
2023/04/25 05:01:46;;;;;;;20.92;5.57;;;27.90;48.70;;;;;;5067541;28;20539;-59
2023/04/25 05:04:13;;;;;;;21.67;5.35;;;27.80;49.00;;;;;;5067704;28;20090;-58
2023/04/25 05:06:40;;;;;;;23.00;5.40;;;27.70;49.40;;;;;;5068856;28;20151;-58
2023/04/25 05:09:06;;;;;;;14.82;4.18;;;27.60;50.00;;;;;;5070889;28;20151;-60
2023/04/25 05:11:33;;;;;;;27.00;4.95;;;27.50;50.60;;;;;;5064757;28;20075;-59
2023/04/25 05:13:59;;;;;;;16.20;4.45;;;27.50;51.10;;;;;;5067602;28;20409;-55
2023/04/25 05:16:26;;;;;;;19.30;3.83;;;27.40;51.00;;;;;;5067928;28;20141;-57
2023/04/25 05:18:52;;;;;;;21.90;4.93;;;27.20;51.00;;;;;;5068160;28;20073;-59
2023/04/25 05:21:18;;;;;;;14.57;3.97;;;27.20;50.90;;;;;;5068074;28;20042;-56
2023/04/25 05:23:45;;;;;;;19.17;4.63;;;27.10;51.00;;;;;;5071427;28;20553;-59
2023/04/25 05:26:13;;;;;;;27.50;4.60;;;27.10;51.60;;;;;;5069074;28;20515;-60
2023/04/25 05:28:42;;;;;;;19.42;4.07;;;27.00;51.40;;;;;;5069420;28;20080;-59
2023/04/25 05:31:10;;;;;;;19.08;3.72;;;27.00;51.20;;;;;;5067593;28;20599;-55
2023/04/25 05:33:37;;;;;;;16.58;4.60;;;26.90;51.40;;;;;;5069049;28;20119;-56
2023/04/25 05:36:03;;;;;;;20.10;5.10;;;26.90;52.30;;;;;;5061443;28;20480;-59
2023/04/25 05:38:29;;;;;;;17.48;3.80;;;26.80;52.00;;;;;;5067435;28;20086;-56
2023/04/25 05:40:56;;;;;;;20.40;4.55;;;26.70;52.10;;;;;;5068322;28;20538;-57
2023/04/25 05:43:22;;;;;;;25.42;5.05;;;26.50;51.80;;;;;;5068605;28;20077;-58
2023/04/25 05:45:49;;;;;;;27.05;5.57;;;26.60;51.80;;;;;;5069002;28;20141;-60
2023/04/25 05:48:15;;;;;;;22.30;4.55;;;26.50;52.40;;;;;;5067639;28;20192;-61
2023/04/25 05:50:41;;;;;;;26.70;5.32;;;26.40;53.20;;;;;;5067756;28;20145;-54
2023/04/25 05:53:09;;;;;;;17.95;5.15;;;26.40;53.20;;;;;;5068640;28;20083;-54
2023/04/25 05:55:35;;;;;;;19.50;4.93;;;26.30;53.40;;;;;;5068884;28;20062;-57
2023/04/25 05:58:01;;;;;;;13.65;3.95;;;26.20;53.50;;;;;;5068401;28;20063;-59
2023/04/25 06:00:28;;;;;;;20.60;4.47;;;26.10;53.50;;;;;;5068360;28;20070;-59
2023/04/25 06:02:54;;;;;;;15.13;4.40;;;26.10;54.30;;;;;;5066737;28;20588;-58
2023/04/25 06:05:21;;;;;;;18.77;3.85;;;26.10;53.80;;;;;;5061237;28;20064;-58
2023/04/25 06:07:47;;;;;;;22.40;4.38;;;25.90;54.10;;;;;;5067319;28;20525;-57
2023/04/25 06:10:14;;;;;;;20.80;4.38;;;25.80;54.60;;;;;;5067867;28;20082;-58
2023/04/25 06:12:41;;;;;;;24.58;4.43;;;25.80;54.40;;;;;;5067937;28;20076;-56
2023/04/25 06:15:08;;;;;;;22.27;4.60;;;25.80;54.30;;;;;;5068707;28;20100;-58
2023/04/25 06:17:35;;;;;;;28.45;5.25;;;25.80;54.30;;;;;;5067809;28;20069;-58
2023/04/25 06:20:01;;;;;;;15.68;4.20;;;25.90;54.90;;;;;;5066814;28;20077;-59
2023/04/25 06:22:28;;;;;;;20.63;4.10;;;25.70;54.70;;;;;;5067112;28;20076;-54
2023/04/25 06:24:57;;;;;;;25.23;4.68;;;25.70;54.50;;;;;;5067860;28;20156;-57
2023/04/25 06:27:23;;;;;;;14.57;4.30;;;25.70;54.40;;;;;;5067060;28;20089;-56
2023/04/25 06:29:49;;;;;;;27.33;5.15;;;25.70;55.10;;;;;;5067120;28;20095;-56
2023/04/25 06:32:17;;;;;;;26.13;4.68;;;25.50;54.70;;;;;;5071549;28;20069;-59
2023/04/25 06:34:44;;;;;;;19.40;4.40;;;25.50;54.50;;;;;;5069474;28;20497;-55
2023/04/25 06:37:10;;;;;;;27.17;5.55;;;25.50;54.60;;;;;;5067461;28;20069;-57
2023/04/25 06:39:37;;;;;;;18.40;4.32;;;25.50;55.30;;;;;;5069750;28;20090;-58
2023/04/25 06:42:03;;;;;;;22.10;4.38;;;25.40;55.40;;;;;;5069243;28;20502;-61
2023/04/25 06:44:30;;;;;;;23.73;4.95;;;25.40;55.30;;;;;;5070945;28;20069;-58
2023/04/25 06:46:57;;;;;;;28.45;4.57;;;25.40;55.30;;;;;;5070795;28;20126;-52
2023/04/25 06:49:23;;;;;;;22.77;4.95;;;25.40;55.30;;;;;;5071669;28;20087;-56
2023/04/25 06:51:49;;;;;;;19.80;5.55;;;25.40;55.90;;;;;;5070420;28;20069;-58
2023/04/25 06:54:17;;;;;;;20.85;5.03;;;25.40;55.90;;;;;;5070746;28;20070;-58
2023/04/25 06:56:43;;;;;;;13.50;4.68;;;25.40;55.90;;;;;;5069847;28;20067;-58
2023/04/25 06:59:10;;;;;;;23.42;5.15;;;25.40;55.90;;;;;;5070431;28;20439;-56
2023/04/25 07:01:36;;;;;;;19.85;4.97;;;25.30;56.70;;;;;;5070904;28;20205;-59
2023/04/25 07:04:02;;;;;;;17.88;4.32;;;25.20;57.30;;;;;;5069621;28;20066;-59
2023/04/25 07:06:29;;;;;;;22.83;5.20;;;25.10;57.70;;;;;;5067799;28;20439;-58
2023/04/25 07:08:56;;;;;;;24.73;5.15;;;25.10;57.80;;;;;;5071564;28;20093;-58
2023/04/25 07:11:22;;;;;;;26.10;5.15;;;25.00;58.20;;;;;;5066401;28;20065;-55
2023/04/25 07:13:48;;;;;;;23.65;5.15;;;25.10;58.50;;;;;;5069900;28;20075;-58
2023/04/25 07:16:16;;;;;;;14.77;3.90;;;25.00;58.70;;;;;;5068676;28;20065;-55
2023/04/25 07:18:42;;;;;;;28.75;7.75;;;25.00;59.40;;;;;;5070388;28;20078;-56
2023/04/25 07:21:08;;;;;;;28.02;7.53;;;25.00;59.60;;;;;;5071883;28;20082;-55
2023/04/25 07:23:35;;;;;;;20.85;7.22;;;24.80;59.60;;;;;;5070253;28;20162;-58
2023/04/25 07:26:01;;;;;;;22.40;5.88;;;24.80;60.00;;;;;;5070725;28;20497;-57
2023/04/25 07:28:28;;;;;;;24.02;5.80;;;24.70;60.50;;;;;;5070813;28;20083;-53
2023/04/25 07:30:54;;;;;;;25.63;5.95;;;24.60;61.10;;;;;;5068033;28;20106;-59
2023/04/25 07:33:20;;;;;;;22.60;5.05;;;24.60;61.50;;;;;;5066729;28;20061;-54
2023/04/25 07:35:47;;;;;;;21.80;5.45;;;24.60;61.90;;;;;;5068796;28;20062;-60
2023/04/25 07:38:13;;;;;;;18.92;6.47;;;24.50;62.30;;;;;;5067942;28;20124;-58
2023/04/25 07:40:40;;;;;;;21.27;6.57;;;24.50;62.60;;;;;;5066873;28;20596;-59
2023/04/25 07:43:06;;;;;;;20.58;5.68;;;24.30;62.90;;;;;;5066381;28;20075;-58
2023/04/25 07:45:33;;;;;;;18.83;6.00;;;24.20;63.40;;;;;;5067362;28;20080;-56
2023/04/25 07:47:59;;;;;;;27.85;8.60;;;24.30;63.50;;;;;;5066658;28;20107;-58
2023/04/25 07:50:25;;;;;;;36.35;7.50;;;24.20;63.60;;;;;;5069129;28;20518;-55
2023/04/25 07:52:52;;;;;;;22.77;6.43;;;24.10;64.30;;;;;;5066747;28;20066;-58
2023/04/25 07:55:18;;;;;;;25.85;5.97;;;24.00;64.80;;;;;;5069854;28;20078;-58
2023/04/25 07:57:45;;;;;;;20.95;5.47;;;24.00;65.00;;;;;;5068117;28;20076;-54
2023/04/25 08:00:12;;;;;;;23.00;5.85;;;23.90;65.50;;;;;;5066622;28;20071;-57
2023/04/25 08:02:39;;;;;;;21.25;5.65;;;23.90;65.50;;;;;;5065960;28;20105;-56
2023/04/25 08:05:07;;;;;;;20.80;5.72;;;23.90;65.60;;;;;;5065469;28;20554;-57
2023/04/25 08:07:34;;;;;;;19.30;5.15;;;23.80;65.90;;;;;;5067691;28;20518;-58
2023/04/25 08:10:01;;;;;;;25.67;5.85;;;23.70;66.50;;;;;;5067913;28;20164;-57
2023/04/25 08:12:27;;;;;;;21.20;5.32;;;23.60;67.60;;;;;;5066732;28;20074;-58
2023/04/25 08:14:54;;;;;;;22.92;5.47;;;23.60;68.50;;;;;;5069620;28;20070;-55
2023/04/25 08:17:20;;;;;;;15.20;5.68;;;23.50;69.10;;;;;;5069214;28;20074;-57
2023/04/25 08:19:46;;;;;;;27.92;6.68;;;23.50;69.80;;;;;;5067246;28;20176;-57
2023/04/25 08:22:13;;;;;;;20.42;6.40;;;23.50;71.00;;;;;;5069022;28;20122;-55
2023/04/25 08:24:39;;;;;;;20.80;5.72;;;23.50;72.20;;;;;;5067797;28;20130;-56
2023/04/25 08:27:07;;;;;;;23.38;5.22;;;23.60;72.90;;;;;;5066294;28;20442;-61
2023/04/25 08:29:34;;;;;;;27.20;5.90;;;23.40;74.00;;;;;;5067525;28;20090;-55
2023/04/25 08:32:01;;;;;;;21.52;5.28;;;23.40;74.40;;;;;;5069834;28;20071;-55
2023/04/25 08:34:27;;;;;;;26.98;6.15;;;23.40;75.40;;;;;;5067526;28;20621;-57
2023/04/25 08:36:53;;;;;;;24.48;5.07;;;23.40;75.80;;;;;;5067203;28;20517;-58
2023/04/25 08:39:20;;;;;;;19.50;6.10;;;23.30;76.30;;;;;;5067284;28;20086;-57
2023/04/25 08:41:47;;;;;;;17.73;4.97;;;23.30;76.70;;;;;;5068742;28;20597;-59
2023/04/25 08:44:14;;;;;;;21.95;5.10;;;23.20;77.50;;;;;;5072378;28;20073;-58
2023/04/25 08:46:41;;;;;;;23.63;5.72;;;23.20;78.20;;;;;;5069685;28;20082;-59
2023/04/25 08:49:11;;;;;;;32.58;6.70;;;23.20;78.70;;;;;;5067036;28;20472;-55
2023/04/25 08:51:46;;;;;;;20.15;5.65;;;23.10;79.10;;;;;;5068522;28;20145;-59
2023/04/25 08:54:14;;;;;;;20.38;6.07;;;23.10;79.10;;;;;;5067577;28;20217;-58
2023/04/25 08:56:44;;;;;;;27.02;6.13;;;23.00;79.80;;;;;;5068339;28;20444;-57
2023/04/25 08:59:14;;;;;;;16.35;5.25;;;23.00;80.30;;;;;;5066944;28;20068;-58
2023/04/25 09:01:40;;;;;;;17.27;5.50;;;22.90;80.30;;;;;;5068838;28;20086;-55
2023/04/25 09:04:07;;;;;;;21.70;5.10;;;22.90;80.50;;;;;;5067715;28;20559;-57
2023/04/25 09:06:34;;;;;;;25.75;5.28;;;22.70;80.90;;;;;;5073335;28;20076;-57
2023/04/25 09:09:05;;;;;;;19.65;5.95;;;22.80;81.20;;;;;;5068447;28;20090;-56
2023/04/25 09:11:36;;;;;;;17.13;4.75;;;22.80;80.90;;;;;;5070628;28;20439;-58
2023/04/25 09:14:13;;;;;;;22.08;5.50;;;22.70;80.90;;;;;;5067516;28;20165;-58
2023/04/25 09:16:57;;;;;;;;;;;22.70;81.30;;;;;;5068819;28;20083;-58
2023/04/25 09:19:35;;;;;;;28.25;6.28;;;22.70;81.40;;;;;;5072159;28;19963;-58
2023/04/25 09:22:03;;;;;;;24.10;5.95;;;22.60;81.80;;;;;;5068221;28;20065;-58
2023/04/25 09:24:35;;;;;;;27.98;6.53;;;22.70;82.10;;;;;;5067821;28;20070;-57
2023/04/25 09:27:13;;;;;;;26.77;6.35;;;22.60;82.30;;;;;;5066935;28;20589;-55
2023/04/25 09:29:41;;;;;;;21.92;5.72;;;22.60;83.10;;;;;;5067951;28;20084;-57
2023/04/25 09:32:17;;;;;;;25.48;7.10;;;22.40;84.00;;;;;;5067660;28;20105;-57
2023/04/25 09:34:45;;;;;;;1087.47;68.78;;;22.30;85.10;;;;;;5068482;28;20620;-58
2023/04/25 09:37:12;;;;;;;36.88;7.95;;;22.40;85.50;;;;;;5069099;28;20108;-57
2023/04/25 09:39:39;;;;;;;664.22;36.03;;;22.40;85.80;;;;;;5067096;28;20088;-56
2023/04/25 09:42:06;;;;;;;42.10;7.00;;;22.30;86.00;;;;;;5066638;28;20566;-57
2023/04/25 09:44:32;;;;;;;25.20;6.55;;;22.20;87.00;;;;;;5067669;28;20077;-56
2023/04/25 09:46:59;;;;;;;21.42;6.15;;;22.20;87.60;;;;;;5067668;28;20117;-59
2023/04/25 09:49:27;;;;;;;22.23;6.60;;;22.10;88.00;;;;;;5067753;28;20078;-55
2023/04/25 09:52:00;;;;;;;120.38;10.18;;;22.00;88.40;;;;;;5068869;28;20127;-55
2023/04/25 09:54:26;;;;;;;47.08;8.05;;;22.00;88.70;;;;;;5068424;28;21473;-57
2023/04/25 09:56:54;;;;;;;26.30;6.50;;;22.00;89.00;;;;;;5068184;28;20511;-58
2023/04/25 09:59:24;;;;;;;24.05;6.43;;;22.00;89.20;;;;;;5069864;28;20177;-59
2023/04/25 10:01:52;;;;;;;24.55;5.40;;;21.90;89.30;;;;;;5070358;28;20074;-59
2023/04/25 10:04:27;;;;;;;25.85;5.97;;;21.90;89.70;;;;;;5068064;28;20068;-59
2023/04/25 10:06:55;;;;;;;20.25;6.75;;;21.90;90.00;;;;;;5072418;28;20080;-58
2023/04/25 10:09:26;;;;;;;94.18;8.73;;;21.80;90.10;;;;;;5072847;28;20169;-60
2023/04/25 10:11:53;;;;;;;25.20;6.25;;;21.90;90.30;;;;;;5071354;28;21494;-54
2023/04/25 10:14:20;;;;;;;26.20;6.93;;;21.80;90.40;;;;;;5074753;28;20112;-58
2023/04/25 10:16:48;;;;;;;31.02;6.85;;;21.80;90.40;;;;;;5070827;28;20082;-58
2023/04/25 10:19:15;;;;;;;30.33;7.55;;;21.70;90.80;;;;;;5071738;28;20082;-57
2023/04/25 10:21:51;;;;;;;26.33;7.10;;;21.70;91.00;;;;;;5070470;28;20067;-58
2023/04/25 10:24:18;;;;;;;31.83;7.05;;;21.70;91.20;;;;;;5071349;28;20085;-56
2023/04/25 10:26:44;;;;;;;25.23;7.45;;;21.50;91.70;;;;;;5070552;28;20594;-55
2023/04/25 10:29:10;;;;;;;24.10;6.63;;;21.50;92.10;;;;;;5071009;28;20086;-55
2023/04/25 10:31:47;;;;;;;210.35;16.45;;;21.50;92.40;;;;;;5071773;28;20102;-58
2023/04/25 10:34:13;;;;;;;25.90;6.75;;;21.30;93.00;;;;;;5071684;28;20755;-54
2023/04/25 10:36:40;;;;;;;25.00;7.30;;;21.30;93.40;;;;;;5070656;28;20128;-54
2023/04/25 10:39:09;;;;;;;30.08;7.05;;;21.20;94.00;;;;;;5071064;28;20174;-57
2023/04/25 10:41:52;;;;;;;84.07;8.75;;;21.20;94.10;;;;;;5070762;28;20137;-58
2023/04/25 10:44:18;;;;;;;27.35;5.97;;;21.10;94.60;;;;;;5070470;28;20094;-55
2023/04/25 10:46:45;;;;;;;29.17;7.60;;;21.20;94.80;;;;;;5070387;28;20078;-54
2023/04/25 10:49:30;;;;;;;31.13;7.20;;;21.10;95.40;;;;;;5072779;28;20548;-57
2023/04/25 10:52:14;;;;;;;32.45;7.05;;;21.00;95.60;;;;;;5070811;28;20110;-57
2023/04/25 10:54:48;;;;;;;28.50;6.97;;;21.00;95.90;;;;;;5070553;28;20068;-57
2023/04/25 10:57:33;;;;;;;30.67;6.50;;;20.90;96.30;;;;;;5070605;28;20076;-59
2023/04/25 11:00:11;;;;;;;24.98;6.72;;;20.70;97.00;;;;;;5071147;28;20144;-58
2023/04/25 11:02:48;;;;;;;28.35;7.53;;;20.70;97.90;;;;;;5070978;28;20086;-58
2023/04/25 11:05:29;;;;;;;;;;;20.80;98.40;;;;;;5071703;28;20090;-58
2023/04/25 11:07:59;;;;;;;22.55;6.30;;;20.70;98.50;;;;;;5071573;28;19959;-59
2023/04/25 11:10:30;;;;;;;26.15;7.07;;;20.70;98.60;;;;;;5070683;28;20100;-59
2023/04/25 11:12:57;;;;;;;27.60;6.88;;;20.70;98.90;;;;;;5070076;28;20411;-55
2023/04/25 11:15:25;;;;;;;30.13;6.90;;;20.70;99.20;;;;;;5070896;28;20080;-54
2023/04/25 11:17:55;;;;;;;26.15;6.45;;;20.70;99.60;;;;;;5070289;28;20091;-56
2023/04/25 11:20:22;;;;;;;22.52;5.95;;;20.70;99.90;;;;;;5070472;28;20071;-56
2023/04/25 11:22:48;;;;;;;24.55;6.60;;;20.60;99.90;;;;;;5070460;28;20194;-56
2023/04/25 11:25:16;;;;;;;23.27;6.30;;;20.50;99.90;;;;;;5070399;28;20072;-58
2023/04/25 11:27:53;;;;;;;26.70;6.60;;;20.50;99.90;;;;;;5070414;28;20196;-54
2023/04/25 11:30:20;;;;;;;23.33;6.38;;;20.50;99.90;;;;;;5067680;28;20079;-55
2023/04/25 11:32:47;;;;;;;34.33;7.25;;;20.50;99.90;;;;;;5069358;28;20167;-55
2023/04/25 11:35:14;;;;;;;27.88;6.70;;;20.40;99.90;;;;;;5070667;28;20225;-55
2023/04/25 11:37:42;;;;;;;25.02;7.60;;;20.50;99.90;;;;;;5071987;28;20102;-57
2023/04/25 11:40:12;;;;;;;29.60;7.60;;;20.30;99.90;;;;;;5070088;28;20095;-59
2023/04/25 11:42:42;;;;;;;26.27;7.97;;;20.20;99.90;;;;;;5068860;28;20079;-60
2023/04/25 11:45:10;;;;;;;31.27;7.82;;;20.30;99.90;;;;;;5070159;28;20166;-55
2023/04/25 11:47:37;;;;;;;34.55;7.82;;;20.30;99.90;;;;;;5069244;28;20112;-49
2023/04/25 11:50:07;;;;;;;25.40;7.30;;;20.40;99.90;;;;;;5071609;28;20124;-59
2023/04/25 11:52:45;;;;;;;20.70;7.50;;;20.30;99.90;;;;;;5069444;28;20551;-60
2023/04/25 11:55:16;;;;;;;24.42;7.55;;;20.20;99.90;;;;;;5067920;28;20556;-56
2023/04/25 11:57:44;;;;;;;27.15;7.68;;;20.20;99.90;;;;;;5068572;28;20083;-55
2023/04/25 12:00:15;;;;;;;28.85;7.88;;;20.20;99.90;;;;;;5069862;28;20075;-58
2023/04/25 12:02:46;;;;;;;23.95;7.10;;;20.20;99.90;;;;;;5069393;28;20649;-56
2023/04/25 12:05:19;;;;;;;26.02;7.15;;;20.20;99.90;;;;;;5072363;28;20080;-60
2023/04/25 12:07:46;;;;;;;28.55;7.43;;;20.20;99.90;;;;;;5069707;28;20079;-55
2023/04/25 12:10:15;;;;;;;26.02;7.63;;;20.10;99.90;;;;;;5067851;28;20088;-57
2023/04/25 12:12:48;;;;;;;44.22;13.70;;;20.00;99.90;;;;;;5069394;28;20072;-56
2023/04/25 12:15:27;;;;;;;41.25;14.60;;;20.00;99.90;;;;;;5068076;28;20194;-55
2023/04/25 12:17:54;;;;;;;35.25;11.55;;;20.10;99.90;;;;;;5068961;28;21515;-55
2023/04/25 12:20:24;;;;;;;27.77;9.88;;;20.10;99.90;;;;;;5067369;28;20128;-55
2023/04/25 12:22:52;;;;;;;33.17;9.13;;;20.00;99.90;;;;;;5069889;28;20096;-59
2023/04/25 12:25:41;;;;;;;28.45;8.35;;;20.00;99.90;;;;;;5069301;28;20087;-55
2023/04/25 12:28:11;;;;;;;26.42;7.22;;;20.00;99.90;;;;;;5069947;28;20155;-57
2023/04/25 12:30:57;;;;;;;25.52;7.03;;;20.10;99.90;;;;;;5068200;28;20076;-57
2023/04/25 12:33:24;;;;;;;32.50;8.75;;;20.00;99.90;;;;;;5067328;28;20099;-54
2023/04/25 12:35:51;;;;;;;28.05;8.25;;;19.90;99.90;;;;;;5069478;28;20413;-57
2023/04/25 12:38:25;;;;;;;27.42;8.38;;;19.90;99.90;;;;;;5069448;28;20152;-56
2023/04/25 12:40:52;;;;;;;26.17;8.00;;;19.80;99.90;;;;;;5067811;28;20563;-58